Terminal Aerodrome Forecast
Issued by NWS

Home | Current Version | Previous Version | Text Only | Print | Product List | Glossary Off
Versions: 1 2 3 4 5 6 7 8 9 10 11 12 13 14

000
FTUS41 KCLE 242336
TAFFDY
TAF
KFDY 242336Z 2500/2524 21010KT P6SM SCT040 BKN200
     FM251000 23008KT P6SM VCTS BKN035CB OVC080
      TEMPO 2510/2512 3SM -TSRA BKN018CB OVC030
     FM251400 27010KT P6SM SCT035 BKN100=

USA.gov is the U.S. government's official web portal to all federal, state and local government web resources and services.